createdAt,value
2017-06-29T00:00:15.906Z,88.51
2017-06-29T00:00:56.495Z,88.32
2017-06-29T00:01:37.083Z,88.13
2017-06-29T00:02:17.669Z,87.65
2017-06-29T00:02:58.283Z,87.65
2017-06-29T00:03:38.905Z,87.65
2017-06-29T00:04:19.494Z,88.13
2017-06-29T00:05:00.149Z,87.94
2017-06-29T00:05:40.721Z,87.55
2017-06-29T00:06:21.311Z,87.65
2017-06-29T00:07:01.921Z,86.98
2017-06-29T00:07:42.497Z,87.84
2017-06-29T00:08:23.055Z,87.36
2017-06-29T00:09:03.639Z,87.36
2017-06-29T00:09:44.217Z,87.46
2017-06-29T00:10:24.793Z,87.36
2017-06-29T00:11:05.364Z,87.55
2017-06-29T00:11:45.934Z,88.13
2017-06-29T00:12:26.506Z,88.13
2017-06-29T00:13:07.070Z,88.23
2017-06-29T00:13:47.671Z,88.23
2017-06-29T00:14:28.271Z,88.51
2017-06-29T00:15:08.872Z,87.55
2017-06-29T00:15:49.450Z,88.23
2017-06-29T00:16:30.030Z,87.55
2017-06-29T00:17:10.590Z,87.55
2017-06-29T00:17:51.194Z,87.55
2017-06-29T00:18:31.785Z,87.84
2017-06-29T00:19:12.366Z,87.46
2017-06-29T00:19:52.939Z,87.17
2017-06-29T00:20:33.503Z,87.07
2017-06-29T00:21:14.079Z,86.98
2017-06-29T00:21:54.668Z,87.26
2017-06-29T00:22:35.241Z,87.55
2017-06-29T00:23:15.811Z,87.84
2017-06-29T00:23:56.386Z,87.17
2017-06-29T00:24:36.981Z,87.74
2017-06-29T00:25:17.557Z,87.84
2017-06-29T00:25:58.178Z,87.84
2017-06-29T00:26:38.772Z,87.74
2017-06-29T00:27:19.369Z,88.13
2017-06-29T00:27:59.956Z,87.65
2017-06-29T00:28:40.545Z,87.74
2017-06-29T00:29:21.142Z,88.32
2017-06-29T00:30:01.699Z,88.32
2017-06-29T00:30:42.291Z,87.84
2017-06-29T00:31:22.881Z,88.13
2017-06-29T00:32:03.479Z,87.94
2017-06-29T00:32:44.076Z,87.84
2017-06-29T00:33:24.652Z,87.65
2017-06-29T00:34:05.237Z,87.65
2017-06-29T00:34:45.833Z,87.84
2017-06-29T00:35:26.416Z,87.84
2017-06-29T00:36:06.983Z,87.46
2017-06-29T00:36:47.570Z,87.94
2017-06-29T00:37:28.158Z,87.26
2017-06-29T00:38:08.764Z,87.46
2017-06-29T00:38:49.343Z,87.36
2017-06-29T00:39:29.934Z,88.23
2017-06-29T00:40:10.507Z,87.84
2017-06-29T00:40:51.114Z,88.23
2017-06-29T00:41:31.698Z,88.13
2017-06-29T00:42:12.291Z,88.32
2017-06-29T00:42:52.895Z,87.94
2017-06-29T00:43:33.484Z,88.32
2017-06-29T00:44:14.072Z,87.94
2017-06-29T00:44:54.647Z,87.65
2017-06-29T00:45:35.251Z,88.13
2017-06-29T00:46:15.827Z,88.13
2017-06-29T00:46:56.423Z,87.55
2017-06-29T00:47:36.996Z,87.55
2017-06-29T00:48:17.584Z,87.55
2017-06-29T00:48:58.178Z,87.36
2017-06-29T00:49:38.760Z,87.7
2017-06-29T00:50:19.332Z,87.94
2017-06-29T00:50:59.980Z,88.13
2017-06-29T00:51:40.544Z,87.9
2017-06-29T00:52:21.157Z,87.8
2017-06-29T00:53:01.752Z,87.7
2017-06-29T00:53:42.330Z,87.6
2017-06-29T00:54:22.914Z,87.07
2017-06-29T00:55:03.486Z,87.12
2017-06-29T00:55:44.067Z,87.46
2017-06-29T00:56:24.635Z,87.22
2017-06-29T00:57:05.206Z,87.03
2017-06-29T00:57:45.798Z,87.12
2017-06-29T00:58:26.361Z,87.03
2017-06-29T00:59:06.942Z,86.93
2017-06-29T00:59:47.534Z,86.98
2017-06-29T01:00:28.091Z,87.32
2017-06-29T01:01:08.658Z,87.36
2017-06-29T01:01:49.235Z,87.65
2017-06-29T01:02:29.818Z,87.36
2017-06-29T01:03:10.411Z,87.55
2017-06-29T01:03:50.976Z,87.46
2017-06-29T01:04:31.554Z,87.6
2017-06-29T01:05:12.131Z,87.84
2017-06-29T01:05:52.700Z,87.55
2017-06-29T01:06:33.290Z,87.36
2017-06-29T01:07:13.855Z,87.26
2017-06-29T01:07:54.445Z,87.12
2017-06-29T01:08:35.019Z,87.8
2017-06-29T01:09:15.596Z,87.32
2017-06-29T01:09:56.169Z,87.7
2017-06-29T01:10:36.772Z,87.51
2017-06-29T01:11:17.349Z,87.32
2017-06-29T01:11:57.925Z,87.12
2017-06-29T01:12:38.530Z,87.6
2017-06-29T01:13:19.121Z,87.6
2017-06-29T01:13:59.729Z,87.51
2017-06-29T01:14:40.317Z,87.32
2017-06-29T01:15:20.909Z,86.93
2017-06-29T01:16:01.495Z,86.93
2017-06-29T01:16:42.079Z,87.17
2017-06-29T01:17:22.650Z,86.74
2017-06-29T01:18:03.222Z,86.83
2017-06-29T01:18:43.832Z,87.22
2017-06-29T01:19:24.423Z,87.32
2017-06-29T01:20:05.008Z,86.93
2017-06-29T01:20:45.648Z,87.03
2017-06-29T01:21:26.243Z,87.51
2017-06-29T01:22:06.828Z,86.74
2017-06-29T01:22:47.401Z,86.83
2017-06-29T01:23:27.996Z,86.93
2017-06-29T01:24:08.616Z,87.12
2017-06-29T01:24:49.201Z,86.74
2017-06-29T01:25:29.824Z,87.22
2017-06-29T01:26:10.373Z,87.22
2017-06-29T01:26:50.961Z,87.03
2017-06-29T01:27:31.578Z,87.32
2017-06-29T01:28:12.157Z,87.22
2017-06-29T01:28:52.781Z,87.22
2017-06-29T01:29:33.375Z,87.51
2017-06-29T01:30:14.032Z,87.12
2017-06-29T01:30:54.634Z,87.6
2017-06-29T01:31:35.197Z,87.22
2017-06-29T01:32:15.814Z,87.22
2017-06-29T01:32:56.380Z,87.32
2017-06-29T01:33:36.954Z,87.03
2017-06-29T01:34:17.517Z,87.12
2017-06-29T01:34:58.095Z,87.12
2017-06-29T01:35:38.674Z,87.12
2017-06-29T01:36:19.252Z,86.93
2017-06-29T01:36:59.839Z,87.22
2017-06-29T01:37:40.418Z,87.12
2017-06-29T01:38:20.987Z,87.03
2017-06-29T01:39:01.568Z,87.03
2017-06-29T01:39:42.134Z,87.22
2017-06-29T01:40:22.741Z,87.12
2017-06-29T01:41:03.320Z,87.12
2017-06-29T01:41:43.905Z,87.7
2017-06-29T01:42:24.492Z,87.32
2017-06-29T01:43:05.079Z,87.22
2017-06-29T01:43:45.653Z,87.03
2017-06-29T01:44:26.273Z,87.41
2017-06-29T01:45:06.844Z,87.22
2017-06-29T01:45:47.403Z,87.41
2017-06-29T01:46:28.006Z,87.22
2017-06-29T01:47:08.573Z,87.22
2017-06-29T01:47:49.144Z,87.12
2017-06-29T01:48:29.759Z,87.22
2017-06-29T01:49:10.354Z,87.03
2017-06-29T01:49:50.919Z,87.12
2017-06-29T01:50:31.503Z,86.93
2017-06-29T01:51:12.062Z,87.12
2017-06-29T01:51:52.652Z,87.12
2017-06-29T01:52:33.231Z,86.74
2017-06-29T01:53:13.809Z,87.12
2017-06-29T01:53:54.366Z,87.32
2017-06-29T01:54:34.952Z,87.12
2017-06-29T01:55:15.554Z,87.22
2017-06-29T01:55:56.138Z,87.32
2017-06-29T01:56:36.719Z,87.12
2017-06-29T01:57:17.296Z,87.22
2017-06-29T01:57:57.915Z,87.03
2017-06-29T01:58:38.489Z,87.32
2017-06-29T01:59:19.070Z,87.12
2017-06-29T01:59:59.675Z,87.03
2017-06-29T02:00:40.250Z,87.12
2017-06-29T02:01:20.822Z,87.22
2017-06-29T02:02:01.403Z,87.32
2017-06-29T02:02:41.981Z,86.93
2017-06-29T02:03:22.581Z,86.93
2017-06-29T02:04:03.181Z,86.93
2017-06-29T02:04:43.789Z,87.85
2017-06-29T02:05:24.365Z,87.51
2017-06-29T02:06:04.985Z,87.46
2017-06-29T02:06:45.599Z,87.56
2017-06-29T02:07:26.187Z,87.7
2017-06-29T02:08:06.791Z,87.08
2017-06-29T02:08:47.365Z,87.46
2017-06-29T02:09:27.965Z,88.04
2017-06-29T02:10:08.534Z,87.37
2017-06-29T02:10:49.097Z,87.66
2017-06-29T02:11:29.682Z,87.56
2017-06-29T02:12:10.253Z,87.56
2017-06-29T02:12:50.871Z,87.6
2017-06-29T02:13:31.447Z,87.76
2017-06-29T02:14:12.020Z,87.66
2017-06-29T02:14:52.621Z,87.56
2017-06-29T02:15:33.301Z,87.76
2017-06-29T02:16:13.878Z,87.37
2017-06-29T02:16:54.523Z,87.85
2017-06-29T02:17:35.023Z,87.56
2017-06-29T02:18:15.605Z,87.56
2017-06-29T02:18:56.185Z,87.37
2017-06-29T02:19:36.792Z,87.27
2017-06-29T02:20:17.385Z,87.46
2017-06-29T02:20:58.017Z,87.76
2017-06-29T02:21:38.597Z,87.76
2017-06-29T02:22:19.216Z,88.04
2017-06-29T02:22:59.795Z,87.76
2017-06-29T02:23:40.444Z,87.76
2017-06-29T02:24:21.088Z,87.56
2017-06-29T02:25:01.673Z,87.85
2017-06-29T02:25:42.232Z,88.43
2017-06-29T02:26:22.821Z,88.24
2017-06-29T02:27:03.394Z,88.24
2017-06-29T02:27:43.963Z,88.24
2017-06-29T02:28:24.597Z,88.04
2017-06-29T02:29:05.157Z,88.14
2017-06-29T02:29:45.738Z,87.95
2017-06-29T02:30:26.319Z,88.14
2017-06-29T02:31:06.884Z,87.46
2017-06-29T02:31:47.476Z,88.04
2017-06-29T02:32:28.045Z,87.85
2017-06-29T02:33:08.645Z,87.56
2017-06-29T02:33:49.233Z,87.27
2017-06-29T02:34:29.846Z,87.66
2017-06-29T02:35:10.438Z,87.46
2017-06-29T02:35:51.026Z,87.18
2017-06-29T02:36:31.602Z,86.99
2017-06-29T02:37:12.174Z,86.99
2017-06-29T02:37:52.766Z,86.99
2017-06-29T02:38:33.352Z,87.18
2017-06-29T02:39:13.904Z,86.89
2017-06-29T02:39:54.483Z,87.18
2017-06-29T02:40:35.070Z,87.56
2017-06-29T02:41:15.642Z,87.37
2017-06-29T02:41:56.233Z,87.27
2017-06-29T02:42:36.810Z,87.66
2017-06-29T02:43:17.400Z,87.46
2017-06-29T02:43:57.980Z,87.46
2017-06-29T02:44:38.562Z,87.27
2017-06-29T02:45:19.217Z,87.46
2017-06-29T02:45:59.806Z,87.27
2017-06-29T02:46:40.419Z,87.46
2017-06-29T02:47:21.016Z,87.76
2017-06-29T02:48:01.591Z,87.76
2017-06-29T02:48:42.165Z,87.76
2017-06-29T02:49:22.797Z,87.85
2017-06-29T02:50:03.363Z,88.14
2017-06-29T02:50:43.939Z,88.14
2017-06-29T02:51:24.498Z,87.46
2017-06-29T02:52:05.077Z,87.56
2017-06-29T02:52:45.660Z,87.27
2017-06-29T02:53:26.242Z,87.76
2017-06-29T02:54:06.820Z,87.37
2017-06-29T02:54:47.394Z,87.46
2017-06-29T02:55:27.985Z,87.37
2017-06-29T02:56:08.561Z,87.08
2017-06-29T02:56:49.132Z,87.08
2017-06-29T02:57:29.698Z,87.08
2017-06-29T02:58:10.280Z,87.27
2017-06-29T02:58:50.895Z,86.89
2017-06-29T02:59:31.488Z,86.89
2017-06-29T03:00:12.068Z,87.08
2017-06-29T03:00:52.633Z,87.08
2017-06-29T03:01:33.197Z,87.27
2017-06-29T03:02:13.770Z,87.08
2017-06-29T03:02:54.338Z,86.41
2017-06-29T03:03:34.920Z,86.69
2017-06-29T03:04:15.487Z,86.41
2017-06-29T03:04:56.060Z,86.41
2017-06-29T03:05:36.659Z,86.6
2017-06-29T03:06:17.231Z,87.18
2017-06-29T03:06:57.810Z,87.18
2017-06-29T03:07:38.395Z,87.18
2017-06-29T03:08:18.986Z,86.89
2017-06-29T03:08:59.563Z,86.89
2017-06-29T03:09:40.156Z,87.08
2017-06-29T03:10:20.737Z,86.89
2017-06-29T03:11:01.309Z,86.79
2017-06-29T03:11:41.888Z,87.27
2017-06-29T03:12:22.552Z,87.18
2017-06-29T03:13:03.109Z,86.99
2017-06-29T03:13:43.706Z,87.46
2017-06-29T03:14:24.275Z,87.56
2017-06-29T03:15:04.880Z,87.71
2017-06-29T03:15:45.475Z,87.46
2017-06-29T03:16:26.045Z,87.27
2017-06-29T03:17:06.633Z,87.37
2017-06-29T03:17:47.217Z,87.23
2017-06-29T03:18:27.794Z,87.27
2017-06-29T03:19:08.394Z,87.56
2017-06-29T03:19:48.991Z,88.1
2017-06-29T03:20:29.567Z,87.76
2017-06-29T03:21:10.138Z,87.56
2017-06-29T03:21:50.721Z,87.76
2017-06-29T03:22:31.296Z,88.04
2017-06-29T03:23:11.878Z,87.46
2017-06-29T03:23:52.455Z,87.27
2017-06-29T03:24:33.041Z,87.95
2017-06-29T03:25:13.611Z,88.14
2017-06-29T03:25:54.212Z,88.14
2017-06-29T03:26:34.783Z,88.33
2017-06-29T03:27:15.350Z,87.85
2017-06-29T03:27:55.996Z,87.56
2017-06-29T03:28:36.578Z,88.24
2017-06-29T03:29:17.162Z,88.14
2017-06-29T03:29:57.747Z,88.14
2017-06-29T03:30:38.313Z,87.95
2017-06-29T03:31:18.893Z,88.14
2017-06-29T03:31:59.474Z,88.14
2017-06-29T03:32:40.045Z,88.14
2017-06-29T03:33:20.660Z,88.24
2017-06-29T03:34:01.272Z,87.95
2017-06-29T03:34:41.878Z,88.04
2017-06-29T03:35:22.466Z,87.85
2017-06-29T03:36:03.052Z,88.04
2017-06-29T03:36:43.625Z,87.76
2017-06-29T03:37:24.194Z,87.76
2017-06-29T03:38:04.771Z,87.95
2017-06-29T03:38:45.336Z,88.14
2017-06-29T03:39:25.951Z,88.04
2017-06-29T03:40:06.540Z,87.46
2017-06-29T03:40:47.125Z,87.76
2017-06-29T03:41:27.731Z,87.56
2017-06-29T03:42:08.313Z,87.46
2017-06-29T03:42:48.893Z,87.76
2017-06-29T03:43:29.490Z,87.66
2017-06-29T03:44:10.083Z,87.37
2017-06-29T03:44:50.677Z,87.46
2017-06-29T03:45:31.269Z,87.56
2017-06-29T03:46:11.868Z,87.27
2017-06-29T03:46:52.429Z,87.85
2017-06-29T03:47:33.002Z,86.89
2017-06-29T03:48:13.601Z,87.37
2017-06-29T03:48:54.191Z,87.18
2017-06-29T03:49:34.794Z,87.08
2017-06-29T03:50:15.381Z,86.89
2017-06-29T03:50:55.970Z,87.22
2017-06-29T03:51:36.557Z,87.08
2017-06-29T03:52:17.154Z,86.45
2017-06-29T03:52:57.706Z,86.93
2017-06-29T03:53:38.287Z,87.32
2017-06-29T03:54:18.858Z,86.74
2017-06-29T03:54:59.447Z,86.45
2017-06-29T03:55:40.033Z,86.83
2017-06-29T03:56:20.618Z,86.65
2017-06-29T03:57:01.207Z,86.16
2017-06-29T03:57:41.787Z,86.16
2017-06-29T03:58:22.385Z,86.16
2017-06-29T03:59:02.959Z,86.16
2017-06-29T03:59:43.543Z,86.83
2017-06-29T04:00:24.110Z,86.35
2017-06-29T04:01:04.695Z,86.07
2017-06-29T04:01:45.283Z,86.07
2017-06-29T04:02:25.881Z,86.55
2017-06-29T04:03:06.454Z,86.45
2017-06-29T04:03:47.080Z,86.26
2017-06-29T04:04:27.672Z,86.55
2017-06-29T04:05:08.235Z,87.22
2017-06-29T04:05:48.831Z,87.32
2017-06-29T04:06:29.447Z,87.12
2017-06-29T04:07:10.030Z,87.41
2017-06-29T04:07:50.604Z,87.32
2017-06-29T04:08:31.199Z,86.93
2017-06-29T04:09:11.780Z,87.12
2017-06-29T04:09:52.351Z,87.32
2017-06-29T04:10:32.920Z,87.32
2017-06-29T04:11:13.499Z,87.03
2017-06-29T04:11:54.090Z,87.12
2017-06-29T04:12:34.683Z,87.12
2017-06-29T04:13:15.263Z,87.6
2017-06-29T04:13:55.853Z,87.32
2017-06-29T04:14:36.428Z,87.6
2017-06-29T04:15:17.001Z,87.9
2017-06-29T04:15:57.590Z,87.8
2017-06-29T04:16:38.167Z,87.12
2017-06-29T04:17:18.787Z,86.93
2017-06-29T04:17:59.391Z,86.65
2017-06-29T04:18:39.963Z,86.55
2017-06-29T04:19:20.533Z,86.55
2017-06-29T04:20:01.117Z,86.65
2017-06-29T04:20:41.737Z,86.35
2017-06-29T04:21:22.318Z,86.07
2017-06-29T04:22:02.920Z,86.26
2017-06-29T04:22:43.509Z,86.3
2017-06-29T04:23:24.082Z,86.49
2017-06-29T04:24:04.677Z,87.26
2017-06-29T04:24:45.254Z,86.78
2017-06-29T04:25:25.844Z,86.78
2017-06-29T04:26:06.455Z,87.36
2017-06-29T04:26:47.036Z,87.17
2017-06-29T04:27:27.605Z,87.12
2017-06-29T04:28:08.189Z,87.26
2017-06-29T04:28:48.766Z,86.93
2017-06-29T04:29:29.370Z,87.84
2017-06-29T04:30:09.958Z,86.59
2017-06-29T04:30:50.535Z,86.07
2017-06-29T04:31:31.130Z,86.55
2017-06-29T04:32:11.718Z,86.65
2017-06-29T04:32:52.302Z,86.65
2017-06-29T04:33:32.884Z,86.65
2017-06-29T04:34:13.477Z,86.98
2017-06-29T04:34:54.041Z,87.74
2017-06-29T04:35:34.611Z,87.51
2017-06-29T04:36:15.204Z,87.12
2017-06-29T04:36:55.786Z,86.26
2017-06-29T04:37:36.658Z,86.65
2017-06-29T04:38:17.394Z,87.03
2017-06-29T04:38:58.332Z,87.12
2017-06-29T04:39:39.012Z,87.12
2017-06-29T04:40:19.652Z,87.03
2017-06-29T04:41:00.331Z,87.12
2017-06-29T04:41:41.000Z,87.12
2017-06-29T04:42:21.580Z,86.98
2017-06-29T04:43:02.175Z,87.17
2017-06-29T04:43:42.857Z,86.55
2017-06-29T04:44:23.480Z,87.17
2017-06-29T04:45:04.184Z,87.07
2017-06-29T04:45:44.749Z,87.55
2017-06-29T04:46:25.547Z,87.55
2017-06-29T04:47:06.113Z,88.23
2017-06-29T04:47:46.711Z,87.51
2017-06-29T04:48:27.291Z,86.98
2017-06-29T04:49:07.897Z,86.55
2017-06-29T04:49:48.549Z,86.98
2017-06-29T04:50:29.108Z,86.98
2017-06-29T04:51:09.679Z,87.17
2017-06-29T04:51:50.274Z,86.49
2017-06-29T04:52:30.857Z,86.49
2017-06-29T04:53:11.491Z,86.49
2017-06-29T04:53:52.079Z,86.4
2017-06-29T04:54:32.672Z,86.88
2017-06-29T04:55:13.250Z,86.98
2017-06-29T04:55:53.823Z,87.17
2017-06-29T04:56:34.411Z,87.07
2017-06-29T04:57:15.009Z,86.21
2017-06-29T04:57:55.577Z,86.4
2017-06-29T04:58:36.189Z,86.69
2017-06-29T04:59:16.768Z,86.11
2017-06-29T04:59:57.382Z,86.11
2017-06-29T05:00:37.976Z,86.01
2017-06-29T05:01:18.561Z,86.69
2017-06-29T05:01:59.137Z,87.36
2017-06-29T05:02:39.712Z,86.69
2017-06-29T05:03:20.302Z,86.11
2017-06-29T05:04:00.872Z,86.21
2017-06-29T05:04:41.458Z,86.3
2017-06-29T05:05:22.053Z,86.11
2017-06-29T05:06:02.623Z,86.11
2017-06-29T05:06:43.218Z,86.3
2017-06-29T05:07:23.806Z,86.98
2017-06-29T05:08:04.380Z,87.84
2017-06-29T05:08:45.018Z,87.36
2017-06-29T05:09:25.620Z,87.36
2017-06-29T05:10:06.227Z,87.07
2017-06-29T05:10:46.847Z,86.4
2017-06-29T05:11:27.427Z,86.49
2017-06-29T05:12:07.993Z,86.49
2017-06-29T05:12:48.599Z,86.88
2017-06-29T05:13:29.211Z,86.49
2017-06-29T05:14:09.807Z,86.49
2017-06-29T05:14:50.395Z,86.69
2017-06-29T05:15:30.980Z,86.11
2017-06-29T05:16:11.555Z,85.91
2017-06-29T05:16:52.149Z,86.11
2017-06-29T05:17:32.711Z,86.78
2017-06-29T05:18:13.311Z,86.78
2017-06-29T05:18:53.867Z,87.55
2017-06-29T05:19:34.460Z,87.65
2017-06-29T05:20:15.027Z,88.13
2017-06-29T05:20:55.603Z,87.94
2017-06-29T05:21:36.168Z,87.94
2017-06-29T05:22:16.736Z,87.46
2017-06-29T05:22:57.314Z,87.55
2017-06-29T05:23:37.888Z,87.55
2017-06-29T05:24:18.488Z,87.55
2017-06-29T05:24:59.063Z,88.13
2017-06-29T05:25:39.650Z,87.84
2017-06-29T05:26:20.235Z,88.04
2017-06-29T05:27:00.801Z,88.23
2017-06-29T05:27:41.356Z,88.13
2017-06-29T05:28:21.934Z,88.13
2017-06-29T05:29:02.506Z,88.51
2017-06-29T05:29:43.070Z,88.42
2017-06-29T05:30:23.665Z,88.13
2017-06-29T05:31:04.255Z,87.94
2017-06-29T05:31:44.803Z,88.13
2017-06-29T05:32:25.399Z,88.13
2017-06-29T05:33:05.991Z,88.23
2017-06-29T05:33:46.621Z,88.51
2017-06-29T05:34:27.205Z,88.42
2017-06-29T05:35:07.792Z,88.71
2017-06-29T05:35:48.402Z,88.71
2017-06-29T05:36:28.974Z,88.51
2017-06-29T05:37:09.551Z,87.94
2017-06-29T05:37:50.126Z,88.61
2017-06-29T05:38:30.740Z,89.09
2017-06-29T05:39:11.280Z,88.61
2017-06-29T05:39:51.874Z,88.51
2017-06-29T05:40:32.446Z,88.71
2017-06-29T05:41:13.027Z,88.42
2017-06-29T05:41:53.593Z,88.61
2017-06-29T05:42:34.163Z,88.71
2017-06-29T05:43:14.741Z,88.32
2017-06-29T05:43:55.324Z,88.42
2017-06-29T05:44:36.011Z,88.04
2017-06-29T05:45:16.591Z,88.23
2017-06-29T05:45:57.212Z,88.13
2017-06-29T05:46:37.833Z,88.42
2017-06-29T05:47:18.454Z,88.42
2017-06-29T05:47:59.058Z,88.04
2017-06-29T05:48:39.771Z,87.94
2017-06-29T05:49:20.349Z,87.94
2017-06-29T05:50:00.924Z,88.13
2017-06-29T05:50:41.496Z,87.46
2017-06-29T05:51:22.059Z,88.04
2017-06-29T05:52:02.673Z,87.94
2017-06-29T05:52:43.228Z,87.94
2017-06-29T05:53:23.782Z,87.84
2017-06-29T05:54:04.359Z,88.42
2017-06-29T05:54:44.933Z,88.23
2017-06-29T05:55:25.500Z,88.32
2017-06-29T05:56:06.077Z,88.42
2017-06-29T05:56:46.684Z,88.42
2017-06-29T05:57:27.268Z,88.32
2017-06-29T05:58:07.864Z,88.23
2017-06-29T05:58:48.484Z,88.04
2017-06-29T05:59:29.044Z,88.13
2017-06-29T06:00:09.661Z,88.13
2017-06-29T06:00:50.246Z,88.61
2017-06-29T06:01:30.831Z,87.94
2017-06-29T06:02:11.424Z,87.46
2017-06-29T06:02:52.017Z,87.94
2017-06-29T06:03:32.602Z,87.55
2017-06-29T06:04:13.187Z,87.46
2017-06-29T06:04:53.779Z,87.65
2017-06-29T06:05:34.361Z,87.55
2017-06-29T06:06:15.058Z,87.65
2017-06-29T06:06:55.633Z,87.55
2017-06-29T06:07:36.219Z,87.84
2017-06-29T06:08:16.821Z,87.46
2017-06-29T06:08:57.399Z,87.46
2017-06-29T06:09:37.975Z,87.65
2017-06-29T06:10:18.548Z,87.84
2017-06-29T06:10:59.165Z,87.94
2017-06-29T06:11:39.791Z,88.51
2017-06-29T06:12:20.385Z,88.13
2017-06-29T06:13:00.968Z,88.04
2017-06-29T06:13:41.595Z,88.13
2017-06-29T06:14:22.240Z,88.23
2017-06-29T06:15:02.821Z,87.84
2017-06-29T06:15:43.409Z,87.94
2017-06-29T06:16:24.002Z,88.42
2017-06-29T06:17:04.601Z,88.23
2017-06-29T06:17:45.235Z,88.23
2017-06-29T06:18:25.898Z,88.23
2017-06-29T06:19:06.466Z,87.94
2017-06-29T06:19:47.062Z,87.94
2017-06-29T06:20:27.660Z,87.84
2017-06-29T06:21:08.253Z,87.84
2017-06-29T06:21:48.845Z,87.17
2017-06-29T06:22:29.433Z,87.84
2017-06-29T06:23:10.054Z,87.36
2017-06-29T06:23:50.653Z,87.65
2017-06-29T06:24:31.232Z,87.84
2017-06-29T06:25:11.907Z,87.84
2017-06-29T06:25:52.500Z,88.04
2017-06-29T06:26:33.089Z,86.98
2017-06-29T06:27:13.688Z,87.12
2017-06-29T06:27:54.271Z,87.21
2017-06-29T06:28:34.858Z,87.17
2017-06-29T06:29:15.459Z,86.49
2017-06-29T06:29:56.048Z,86.54
2017-06-29T06:30:36.641Z,86.73
2017-06-29T06:31:17.239Z,87.17
2017-06-29T06:31:57.816Z,87.02
2017-06-29T06:32:38.401Z,87.17
2017-06-29T06:33:18.960Z,86.54
2017-06-29T06:33:59.568Z,86.54
2017-06-29T06:34:40.141Z,86.35
2017-06-29T06:35:20.755Z,86.35
2017-06-29T06:36:01.359Z,86.25
2017-06-29T06:36:41.938Z,86.15
2017-06-29T06:37:22.510Z,86.73
2017-06-29T06:38:03.094Z,86.54
2017-06-29T06:38:43.680Z,86.25
2017-06-29T06:39:24.308Z,85.96
2017-06-29T06:40:04.877Z,85.96
2017-06-29T06:40:45.486Z,86.25
2017-06-29T06:41:26.049Z,86.35
2017-06-29T06:42:06.669Z,85.86
2017-06-29T06:42:47.260Z,86.05
2017-06-29T06:43:27.839Z,86.15
2017-06-29T06:44:08.535Z,86.05
2017-06-29T06:44:49.118Z,85.09
2017-06-29T06:45:29.710Z,85.19
2017-06-29T06:46:10.309Z,85.77
2017-06-29T06:46:50.942Z,85.86
2017-06-29T06:47:31.560Z,85.86
2017-06-29T06:48:12.170Z,86.05
2017-06-29T06:48:52.748Z,85.67
2017-06-29T06:49:33.321Z,85.47
2017-06-29T06:50:13.901Z,85.28
2017-06-29T06:50:54.486Z,85.67
2017-06-29T06:51:35.066Z,85.57
2017-06-29T06:52:15.683Z,84.99
2017-06-29T06:52:56.274Z,84.99
2017-06-29T06:53:36.849Z,85.38
2017-06-29T06:54:17.445Z,84.99
2017-06-29T06:54:58.021Z,85.28
2017-06-29T06:55:38.593Z,85.38
2017-06-29T06:56:19.190Z,85.67
2017-06-29T06:56:59.788Z,85.38
2017-06-29T06:57:40.379Z,85.57
2017-06-29T06:58:20.958Z,84.9
2017-06-29T06:59:01.561Z,84.8
2017-06-29T06:59:42.140Z,84.9
2017-06-29T07:00:22.739Z,84.32
2017-06-29T07:01:03.308Z,84.52
2017-06-29T07:01:43.882Z,84.27
2017-06-29T07:02:24.480Z,84.7
2017-06-29T07:03:05.154Z,85.19
2017-06-29T07:03:45.721Z,85.19
2017-06-29T07:04:26.316Z,84.52
2017-06-29T07:05:06.915Z,84.32
2017-06-29T07:05:47.685Z,84.55
2017-06-29T07:06:28.592Z,84.75
2017-06-29T07:07:09.199Z,84.61
2017-06-29T07:07:51.288Z,84.8
2017-06-29T07:08:30.875Z,84.55
2017-06-29T07:09:11.476Z,84.61
2017-06-29T07:09:52.065Z,84.7
2017-06-29T07:10:32.776Z,84.99
2017-06-29T07:11:13.461Z,85.03
2017-06-29T07:11:56.659Z,84.42
2017-06-29T07:12:37.246Z,84.84
2017-06-29T07:13:17.956Z,84.65
2017-06-29T07:13:58.622Z,84.65
2017-06-29T07:14:39.258Z,84.17
2017-06-29T07:15:20.018Z,84.36
2017-06-29T07:16:00.621Z,84.07
2017-06-29T07:16:41.239Z,84.36
2017-06-29T07:17:21.818Z,83.59
2017-06-29T07:18:02.406Z,84.27
2017-06-29T07:18:42.979Z,84.17
2017-06-29T07:19:23.566Z,84.36
2017-06-29T07:20:04.162Z,84.07
2017-06-29T07:20:44.797Z,83.69
2017-06-29T07:21:25.375Z,83.69
2017-06-29T07:22:07.117Z,83.59
2017-06-29T07:22:48.179Z,83.69
2017-06-29T07:23:28.885Z,83.88
2017-06-29T07:24:09.706Z,83.59
2017-06-29T07:24:50.323Z,83.88
2017-06-29T07:25:30.937Z,83.88
2017-06-29T07:26:11.503Z,83.59
2017-06-29T07:26:52.200Z,83.88
2017-06-29T07:27:32.784Z,83.59
2017-06-29T07:28:13.396Z,84.36
2017-06-29T07:28:53.967Z,84.27
2017-06-29T07:29:34.554Z,84.17
2017-06-29T07:30:15.137Z,84.17
2017-06-29T07:30:55.720Z,83.98
2017-06-29T07:31:36.307Z,84.07
2017-06-29T07:32:16.894Z,84.07
2017-06-29T07:32:57.532Z,83.69
2017-06-29T07:33:38.149Z,84.65
2017-06-29T07:34:18.740Z,83.98
2017-06-29T07:34:59.322Z,83.88
2017-06-29T07:35:39.915Z,83.11
2017-06-29T07:36:20.487Z,83.5
2017-06-29T07:37:01.139Z,83.3
2017-06-29T07:37:41.778Z,83.5
2017-06-29T07:38:22.347Z,83.44
2017-06-29T07:39:02.942Z,83.53
2017-06-29T07:39:43.521Z,83.59
2017-06-29T07:40:24.100Z,83.59
2017-06-29T07:41:04.676Z,83.44
2017-06-29T07:41:45.266Z,83.44
2017-06-29T07:42:25.842Z,83.5
2017-06-29T07:43:06.431Z,83.73
2017-06-29T07:43:47.014Z,83.88
2017-06-29T07:44:27.664Z,84.17
2017-06-29T07:45:08.270Z,83.3
2017-06-29T07:45:48.878Z,83.78
2017-06-29T07:46:29.439Z,83.88
2017-06-29T07:47:10.070Z,83.59
2017-06-29T07:47:50.684Z,83.98
2017-06-29T07:48:31.310Z,83.88
2017-06-29T07:49:12.186Z,84.07
2017-06-29T07:49:53.924Z,83.88
2017-06-29T07:50:35.568Z,83.98
2017-06-29T07:51:17.543Z,83.5
2017-06-29T07:51:59.014Z,84.36
2017-06-29T07:52:39.677Z,84.07
2017-06-29T07:53:20.276Z,83.78
2017-06-29T07:54:00.950Z,83.69
2017-06-29T07:54:41.577Z,83.69
2017-06-29T07:55:22.226Z,84.07
2017-06-29T07:56:02.929Z,83.3
2017-06-29T07:56:43.544Z,83.69
2017-06-29T07:57:24.212Z,84.07
2017-06-29T07:58:04.939Z,83.59
2017-06-29T07:58:45.539Z,83.3
2017-06-29T07:59:26.145Z,83.88
2017-06-29T08:00:06.747Z,83.88
2017-06-29T08:00:47.330Z,84.07
2017-06-29T08:01:27.918Z,84.17
2017-06-29T08:02:08.496Z,83.98
2017-06-29T08:02:49.114Z,83.88
2017-06-29T08:03:29.697Z,83.98
2017-06-29T08:04:10.268Z,83.98
2017-06-29T08:04:50.864Z,83.98
2017-06-29T08:05:31.433Z,83.88
2017-06-29T08:06:12.009Z,83.88
2017-06-29T08:06:52.590Z,84.46
2017-06-29T08:07:33.169Z,84.07
2017-06-29T08:08:13.752Z,84.07
2017-06-29T08:08:54.321Z,83.69
2017-06-29T08:09:34.901Z,83.88
2017-06-29T08:10:15.477Z,83.5
2017-06-29T08:10:56.280Z,83.69
2017-06-29T08:11:36.893Z,83.5
2017-06-29T08:12:17.478Z,83.98
2017-06-29T08:12:58.093Z,84.17
2017-06-29T08:13:38.654Z,84.07
2017-06-29T08:14:19.275Z,84.65
2017-06-29T08:15:00.255Z,84.75
2017-06-29T08:15:40.837Z,84.36
2017-06-29T08:16:21.458Z,84.52
2017-06-29T08:17:02.018Z,84.17
2017-06-29T08:17:42.598Z,84.32
2017-06-29T08:18:23.176Z,84.8
2017-06-29T08:19:03.763Z,84.84
2017-06-29T08:19:44.353Z,84.9
2017-06-29T08:20:24.962Z,84.9
2017-06-29T08:21:05.539Z,85.09
2017-06-29T08:21:46.154Z,85.19
2017-06-29T08:22:26.731Z,85.38
2017-06-29T08:23:07.307Z,85.57
2017-06-29T08:23:47.907Z,85.38
2017-06-29T08:24:28.569Z,85.38
2017-06-29T08:25:09.140Z,85.28
2017-06-29T08:25:49.706Z,85.77
2017-06-29T08:26:30.276Z,85.77
2017-06-29T08:27:10.841Z,85.67
2017-06-29T08:27:51.444Z,86.15
2017-06-29T08:28:32.041Z,86.05
2017-06-29T08:29:12.613Z,85.86
2017-06-29T08:29:53.218Z,85.77
2017-06-29T08:30:33.792Z,85.96
2017-06-29T08:31:14.356Z,85.67
2017-06-29T08:31:54.960Z,85.47
2017-06-29T08:32:35.587Z,85.77
2017-06-29T08:33:16.161Z,85.67
2017-06-29T08:33:56.750Z,86.25
2017-06-29T08:34:37.334Z,85.96
2017-06-29T08:35:17.915Z,85.67
2017-06-29T08:35:58.471Z,86.05
2017-06-29T08:36:39.065Z,85.96
2017-06-29T08:37:19.631Z,85.86
2017-06-29T08:38:00.216Z,86.15
2017-06-29T08:38:40.782Z,86.15
2017-06-29T08:39:21.372Z,86.54
2017-06-29T08:40:01.996Z,86.73
2017-06-29T08:40:42.610Z,86.63
2017-06-29T08:41:23.170Z,86.82
2017-06-29T08:42:03.789Z,86.73
2017-06-29T08:42:44.384Z,87.02
2017-06-29T08:43:24.967Z,87.02
2017-06-29T08:44:05.540Z,87.4